Time;durP1;ratioP1;P1;durP2;ratioP2;P2;SDS_P1;SDS_P2;PMS_P1;PMS_P2;Temp;Humidity;BMP_temperature;BMP_pressure;BME280_temperature;BME280_humidity;BME280_pressure;Samples;Min_cycle;Max_cycle;Signal;HPM_P1;HPM_P2
2020/12/31 00:01:36;;;;;;;3.73;3.10;;;0.20;99.90;;;;;;5017605;28;20236;-56
2020/12/31 00:04:01;;;;;;;3.67;3.00;;;0.20;99.90;;;;;;5020450;28;20189;-56
2020/12/31 00:06:27;;;;;;;3.50;2.90;;;0.20;99.90;;;;;;5016886;28;20509;-56
2020/12/31 00:08:53;;;;;;;6.53;3.50;;;0.20;99.90;;;;;;5019498;28;20510;-56
2020/12/31 00:11:18;;;;;;;4.17;2.70;;;0.20;99.90;;;;;;5022283;28;20289;-55
2020/12/31 00:13:44;;;;;;;4.03;3.27;;;0.20;99.90;;;;;;5010033;28;20707;-58
2020/12/31 00:16:09;;;;;;;3.43;3.13;;;0.20;99.90;;;;;;5021494;28;20176;-57
2020/12/31 00:18:35;;;;;;;5.43;3.93;;;0.20;99.90;;;;;;5012095;28;20182;-54
2020/12/31 00:21:01;;;;;;;6.40;4.30;;;0.20;99.90;;;;;;5021900;28;20213;-52
2020/12/31 00:23:27;;;;;;;7.57;3.70;;;0.30;99.90;;;;;;5020505;28;20542;-55
2020/12/31 00:25:54;;;;;;;6.90;4.30;;;0.30;99.90;;;;;;5027231;28;20444;-54
2020/12/31 00:28:21;;;;;;;8.70;4.90;;;0.30;99.90;;;;;;5026591;28;20193;-59
2020/12/31 00:30:47;;;;;;;6.83;4.23;;;0.20;99.90;;;;;;5026009;28;20457;-55
2020/12/31 00:33:14;;;;;;;4.33;3.40;;;0.20;99.90;;;;;;5026137;28;20475;-54
2020/12/31 00:35:40;;;;;;;4.27;3.33;;;0.20;99.90;;;;;;5028055;28;20436;-55
2020/12/31 00:38:05;;;;;;;5.97;3.53;;;0.30;99.90;;;;;;5038210;28;20941;-54
2020/12/31 00:40:33;;;;;;;5.07;3.53;;;0.20;99.90;;;;;;5025982;28;20197;-54
2020/12/31 00:42:59;;;;;;;4.77;3.27;;;0.20;99.90;;;;;;5024476;28;20202;-55
2020/12/31 00:45:25;;;;;;;3.97;3.00;;;0.30;99.90;;;;;;5023410;28;20919;-55
2020/12/31 00:47:51;;;;;;;3.53;3.10;;;0.30;99.90;;;;;;5022199;28;20760;-55
2020/12/31 00:50:17;;;;;;;5.40;3.50;;;0.20;99.90;;;;;;5028094;28;20515;-55
2020/12/31 00:52:42;;;;;;;6.80;4.60;;;0.20;99.90;;;;;;5022181;28;20217;-55
2020/12/31 00:55:08;;;;;;;5.90;3.37;;;0.30;99.90;;;;;;5024132;28;20186;-55
2020/12/31 00:57:34;;;;;;;3.40;2.90;;;0.30;99.90;;;;;;5024919;28;20190;-59
2020/12/31 00:59:59;;;;;;;5.20;3.50;;;0.20;99.90;;;;;;5027487;28;20256;-55
2020/12/31 01:02:25;;;;;;;5.97;3.90;;;0.20;99.90;;;;;;5022087;28;20217;-57
2020/12/31 01:04:53;;;;;;;3.23;2.70;;;0.20;99.90;;;;;;5023472;28;20190;-54
2020/12/31 01:07:19;;;;;;;3.87;3.40;;;0.20;99.90;;;;;;5025952;28;20276;-55
2020/12/31 01:09:44;;;;;;;4.23;3.07;;;0.20;99.90;;;;;;5021107;28;20554;-55
2020/12/31 01:12:10;;;;;;;3.93;3.27;;;0.10;99.90;;;;;;5022301;28;20640;-56
2020/12/31 01:14:36;;;;;;;5.80;3.80;;;0.10;99.90;;;;;;5025614;28;20236;-56
2020/12/31 01:17:02;;;;;;;5.23;3.70;;;0.00;99.90;;;;;;5024671;28;20443;-55
2020/12/31 01:19:28;;;;;;;5.67;4.07;;;0.00;99.90;;;;;;5026354;28;20209;-55
2020/12/31 01:21:54;;;;;;;7.60;3.80;;;0.00;99.90;;;;;;5026890;28;20488;-55
2020/12/31 01:24:20;;;;;;;5.37;3.10;;;0.00;99.90;;;;;;5027221;28;20431;-55
2020/12/31 01:26:45;;;;;;;3.93;3.00;;;0.00;99.90;;;;;;5030635;28;20201;-55
2020/12/31 01:29:11;;;;;;;4.73;3.57;;;0.10;99.90;;;;;;5028070;28;20181;-55
2020/12/31 01:31:37;;;;;;;4.87;3.53;;;0.10;99.90;;;;;;5026812;28;20212;-54
2020/12/31 01:34:08;;;;;;;5.60;3.17;;;0.10;99.90;;;;;;5029327;28;20874;-57
2020/12/31 01:36:34;;;;;;;5.80;3.90;;;0.10;99.90;;;;;;5022727;28;20177;-54
2020/12/31 01:38:59;;;;;;;4.83;3.70;;;0.10;99.90;;;;;;5021519;28;20494;-57
2020/12/31 01:41:26;;;;;;;7.80;3.70;;;0.10;99.90;;;;;;5024983;28;20229;-55
2020/12/31 01:44:11;;;;;;;10.70;6.13;;;0.20;99.90;;;;;;5026327;28;20186;-57
2020/12/31 01:46:43;;;;;;;9.10;5.93;;;0.10;99.90;;;;;;5028323;28;20499;-55
2020/12/31 01:49:11;;;;;;;11.60;6.20;;;0.20;99.90;;;;;;5027904;28;20473;-55
2020/12/31 01:51:38;;;;;;;11.77;6.60;;;0.20;99.90;;;;;;5027483;28;20567;-56
2020/12/31 01:54:04;;;;;;;11.43;7.07;;;0.20;99.90;;;;;;5028623;28;20474;-56
2020/12/31 01:56:32;;;;;;;11.27;6.47;;;0.20;99.90;;;;;;5023811;28;20501;-54
2020/12/31 01:58:58;;;;;;;10.83;6.80;;;0.20;99.90;;;;;;5022597;28;20560;-55
2020/12/31 02:01:25;;;;;;;8.43;6.77;;;0.20;99.90;;;;;;5026933;28;20456;-57
2020/12/31 02:03:55;;;;;;;11.20;7.30;;;0.30;99.90;;;;;;5027265;28;20906;-55
2020/12/31 02:06:23;;;;;;;10.40;6.70;;;0.30;99.90;;;;;;5021826;28;20971;-55
2020/12/31 02:08:49;;;;;;;12.23;6.37;;;0.30;99.90;;;;;;5029064;28;20440;-56
2020/12/31 02:11:16;;;;;;;12.10;7.47;;;0.20;99.90;;;;;;5029105;28;20817;-56
2020/12/31 02:13:42;;;;;;;11.70;6.90;;;0.20;99.90;;;;;;5023920;28;20486;-56
2020/12/31 02:16:15;;;;;;;11.50;7.20;;;0.20;99.90;;;;;;5026877;28;20432;-56
2020/12/31 02:19:01;;;;;;;12.70;7.30;;;0.10;99.90;;;;;;5027005;28;20436;-54
2020/12/31 02:21:38;;;;;;;22.90;12.60;;;0.10;99.90;;;;;;5027308;28;20467;-56
2020/12/31 02:24:05;;;;;;;14.43;7.93;;;0.00;99.90;;;;;;5026175;28;20442;-55
2020/12/31 02:26:32;;;;;;;12.33;7.93;;;0.00;99.90;;;;;;5026753;28;20437;-54
2020/12/31 02:28:59;;;;;;;12.33;7.17;;;-0.10;99.90;;;;;;5026722;28;20846;-57
2020/12/31 02:31:27;;;;;;;13.00;8.00;;;-0.20;99.90;;;;;;5028336;28;20973;-56
2020/12/31 02:33:55;;;;;;;10.50;6.37;;;-0.20;99.90;;;;;;5026257;28;20518;-56
2020/12/31 02:36:23;;;;;;;12.60;7.40;;;-0.30;99.90;;;;;;5015471;28;20460;-57
2020/12/31 02:38:49;;;;;;;10.83;6.70;;;-0.30;99.90;;;;;;5024072;28;20494;-55
2020/12/31 02:41:18;;;;;;;15.93;7.17;;;-0.30;99.90;;;;;;5026298;28;20444;-58
2020/12/31 02:43:44;;;;;;;13.40;6.80;;;-0.40;99.90;;;;;;5025745;28;20437;-55
2020/12/31 02:46:12;;;;;;;8.77;6.07;;;-0.40;99.90;;;;;;5028211;28;20437;-56
2020/12/31 02:48:39;;;;;;;11.03;7.10;;;-0.40;99.90;;;;;;5027102;28;20946;-52
2020/12/31 02:51:05;;;;;;;11.40;6.60;;;-0.50;99.90;;;;;;5029032;28;20440;-55
2020/12/31 02:53:30;;;;;;;9.80;6.23;;;-0.50;99.90;;;;;;5025042;28;20538;-54
2020/12/31 02:55:56;;;;;;;13.87;7.43;;;-0.60;99.90;;;;;;5015447;28;20859;-57
2020/12/31 02:58:22;;;;;;;9.17;5.97;;;-0.60;99.90;;;;;;5025181;28;20620;-54
2020/12/31 03:00:48;;;;;;;9.93;5.77;;;-0.60;99.90;;;;;;5027248;28;20173;-55
2020/12/31 03:03:16;;;;;;;12.10;6.67;;;-0.60;99.90;;;;;;5024972;28;20259;-52
2020/12/31 03:05:43;;;;;;;8.23;6.10;;;-0.60;99.90;;;;;;5014137;28;20436;-55
2020/12/31 03:08:10;;;;;;;11.90;6.23;;;-0.60;99.90;;;;;;5017784;28;20432;-53
2020/12/31 03:10:36;;;;;;;8.43;5.50;;;-0.60;99.90;;;;;;5022908;28;20468;-54
2020/12/31 03:13:02;;;;;;;9.13;5.93;;;-0.60;99.90;;;;;;5019745;28;21071;-54
2020/12/31 03:15:28;;;;;;;10.93;6.20;;;-0.60;99.90;;;;;;5021393;28;20428;-53
2020/12/31 03:17:53;;;;;;;10.87;6.40;;;-0.60;99.90;;;;;;5023034;28;20197;-57
2020/12/31 03:20:19;;;;;;;7.97;5.63;;;-0.70;99.90;;;;;;5025560;28;20251;-53
2020/12/31 03:22:45;;;;;;;8.87;5.83;;;-0.70;99.90;;;;;;5024455;28;20205;-54
2020/12/31 03:25:10;;;;;;;11.90;6.47;;;-0.80;99.90;;;;;;5026964;28;20432;-53
2020/12/31 03:27:36;;;;;;;14.27;6.30;;;-0.80;99.90;;;;;;5027887;28;20197;-54
2020/12/31 03:30:04;;;;;;;10.70;6.10;;;-0.80;99.90;;;;;;5024226;28;20221;-54
2020/12/31 03:32:30;;;;;;;8.73;5.60;;;-0.80;99.90;;;;;;5022613;28;21000;-55
2020/12/31 03:34:55;;;;;;;11.23;6.53;;;-0.80;99.90;;;;;;5028104;28;20475;-55
2020/12/31 03:37:24;;;;;;;8.57;5.33;;;-0.80;99.90;;;;;;5023004;28;20561;-54
2020/12/31 03:39:49;;;;;;;9.57;5.97;;;-0.80;99.90;;;;;;5024209;28;20181;-55
2020/12/31 03:42:15;;;;;;;10.67;6.07;;;-0.80;99.90;;;;;;5026579;28;20505;-54
2020/12/31 03:44:41;;;;;;;9.30;6.10;;;-0.90;99.90;;;;;;5026391;28;20239;-54
2020/12/31 03:47:07;;;;;;;10.20;6.17;;;-0.90;99.90;;;;;;5018626;28;20449;-54
2020/12/31 03:49:32;;;;;;;11.00;5.40;;;-0.90;99.90;;;;;;5027527;28;20244;-54
2020/12/31 03:51:58;;;;;;;7.70;5.43;;;-0.90;99.90;;;;;;5054882;22;20276;-63
2020/12/31 03:54:23;;;;;;;9.30;5.60;;;-0.90;99.90;;;;;;5068672;28;20249;-62
2020/12/31 03:56:49;;;;;;;10.20;5.80;;;-0.90;99.90;;;;;;5068230;28;20182;-62
2020/12/31 03:59:15;;;;;;;8.60;5.70;;;-1.00;99.90;;;;;;5062739;28;20182;-65
2020/12/31 04:01:40;;;;;;;7.40;5.30;;;-1.00;99.90;;;;;;5065700;28;20204;-65
2020/12/31 04:04:06;;;;;;;11.50;6.17;;;-1.00;99.90;;;;;;5046084;28;20247;-62
2020/12/31 04:06:31;;;;;;;11.27;6.67;;;-1.00;99.90;;;;;;5044051;28;20272;-61
2020/12/31 04:08:58;;;;;;;8.80;5.77;;;-1.00;99.90;;;;;;5049613;28;20621;-61
2020/12/31 04:11:24;;;;;;;12.17;6.13;;;-1.00;99.90;;;;;;5044374;28;20849;-61
2020/12/31 04:13:49;;;;;;;13.30;5.67;;;-0.90;99.90;;;;;;5044941;28;20524;-62
2020/12/31 04:16:16;;;;;;;10.33;5.87;;;-0.90;99.90;;;;;;5046809;28;20215;-62
2020/12/31 04:18:41;;;;;;;15.80;6.70;;;-0.80;99.90;;;;;;5049877;28;20181;-61
2020/12/31 04:21:07;;;;;;;9.73;5.57;;;-0.80;99.90;;;;;;5047720;28;20828;-62
2020/12/31 04:23:33;;;;;;;9.87;6.40;;;-0.80;99.90;;;;;;5038343;28;20200;-64
2020/12/31 04:25:58;;;;;;;12.40;6.77;;;-0.80;99.90;;;;;;5037171;28;20184;-62
2020/12/31 04:28:24;;;;;;;12.00;6.80;;;-0.80;99.90;;;;;;5041552;28;20664;-61
2020/12/31 04:30:50;;;;;;;11.73;6.80;;;-0.80;99.90;;;;;;5033081;28;20197;-62
2020/12/31 04:33:17;;;;;;;10.10;5.90;;;-0.80;99.90;;;;;;5042915;28;20464;-63
2020/12/31 04:35:43;;;;;;;11.07;6.40;;;-0.80;99.90;;;;;;5039382;28;20194;-62
2020/12/31 04:38:10;;;;;;;12.00;7.70;;;-0.80;99.90;;;;;;5042380;28;20458;-62
2020/12/31 04:40:41;;;;;;;10.40;7.33;;;-0.80;99.90;;;;;;5046206;28;20445;-64
2020/12/31 04:43:08;;;;;;;10.80;7.27;;;-0.70;99.90;;;;;;5036128;28;20995;-61
2020/12/31 04:45:34;;;;;;;12.90;7.13;;;-0.70;99.90;;;;;;5043633;28;20441;-62
2020/12/31 04:48:21;;;;;;;12.87;6.70;;;-0.70;99.90;;;;;;5043069;28;20472;-62
2020/12/31 04:50:48;;;;;;;13.50;7.20;;;-0.70;99.90;;;;;;5040809;28;20469;-63
2020/12/31 04:53:14;;;;;;;12.30;7.37;;;-0.70;99.90;;;;;;5041769;28;20464;-62
2020/12/31 04:55:46;;;;;;;13.27;8.20;;;-0.70;99.90;;;;;;5037854;28;20431;-61
2020/12/31 04:58:15;;;;;;;12.10;7.27;;;-0.70;99.90;;;;;;5050011;28;20427;-64
2020/12/31 05:00:42;;;;;;;12.10;7.60;;;-0.60;99.90;;;;;;5048295;28;20447;-63
2020/12/31 05:03:09;;;;;;;15.20;7.70;;;-0.60;99.90;;;;;;5046261;28;20453;-61
2020/12/31 05:05:37;;;;;;;12.80;7.77;;;-0.60;99.90;;;;;;5045967;28;20475;-61
2020/12/31 05:08:04;;;;;;;12.90;7.90;;;-0.60;99.90;;;;;;5040568;28;21031;-61
2020/12/31 05:10:30;;;;;;;10.77;6.90;;;-0.60;99.90;;;;;;5046798;28;20435;-61
2020/12/31 05:12:59;;;;;;;13.80;6.83;;;-0.60;99.90;;;;;;5048656;28;20480;-62
2020/12/31 05:15:39;;;;;;;13.50;8.20;;;-0.60;99.90;;;;;;5051496;28;20441;-61
2020/12/31 05:18:19;;;;;;;11.97;7.63;;;-0.60;99.90;;;;;;5047463;28;20427;-61
2020/12/31 05:20:46;;;;;;;15.07;8.03;;;-0.70;99.90;;;;;;5048881;28;20434;-62
2020/12/31 05:23:17;;;;;;;16.30;7.33;;;-0.70;99.90;;;;;;5052312;28;20523;-62
2020/12/31 05:25:43;;;;;;;15.40;8.47;;;-0.70;99.90;;;;;;5049408;28;20444;-64
2020/12/31 05:28:28;;;;;;;17.73;9.67;;;-0.70;99.90;;;;;;5051447;28;20431;-61
2020/12/31 05:30:59;;;;;;;19.47;11.20;;;-0.70;99.90;;;;;;5047863;28;20442;-61
2020/12/31 05:33:33;;;;;;;18.37;10.50;;;-0.70;99.90;;;;;;5050295;28;20490;-62
2020/12/31 05:36:19;;;;;;;16.10;9.40;;;-0.70;99.90;;;;;;5047802;28;20427;-63
2020/12/31 05:38:57;;;;;;;15.23;9.10;;;-0.70;99.90;;;;;;5041350;28;20459;-61
2020/12/31 05:41:24;;;;;;;14.73;8.90;;;-0.70;99.90;;;;;;5043490;28;21002;-61
2020/12/31 05:43:58;;;;;;;15.37;8.87;;;-0.70;99.90;;;;;;5047356;28;20466;-61
2020/12/31 05:46:29;;;;;;;20.50;9.30;;;-0.70;99.90;;;;;;5049584;28;20435;-64
2020/12/31 05:49:04;;;;;;;14.83;9.00;;;-0.70;99.90;;;;;;5043718;28;20434;-62
2020/12/31 05:51:31;;;;;;;15.97;8.63;;;-0.60;99.90;;;;;;5048195;28;20428;-62
2020/12/31 05:54:10;;;;;;;14.80;8.40;;;-0.70;99.90;;;;;;5050094;28;20513;-61
2020/12/31 05:56:41;;;;;;;12.43;7.10;;;-0.70;99.90;;;;;;5047798;28;20433;-61
2020/12/31 05:59:28;;;;;;;11.37;6.73;;;-0.70;99.90;;;;;;5051088;28;20430;-61
2020/12/31 06:02:02;;;;;;;12.43;7.77;;;-0.70;99.90;;;;;;5046921;28;20484;-61
2020/12/31 06:04:30;;;;;;;12.50;6.43;;;-0.70;99.90;;;;;;5041676;28;20484;-61
2020/12/31 06:07:01;;;;;;;11.47;7.17;;;-0.80;99.90;;;;;;5046131;28;20426;-61
2020/12/31 06:09:31;;;;;;;16.73;8.17;;;-0.80;99.90;;;;;;5050670;28;20470;-61
2020/12/31 06:12:00;;;;;;;15.00;8.67;;;-0.90;99.90;;;;;;5044842;28;20885;-62
2020/12/31 06:14:29;;;;;;;16.50;8.17;;;-1.00;99.90;;;;;;5048247;28;20537;-62
2020/12/31 06:17:00;;;;;;;14.53;8.87;;;-1.00;99.90;;;;;;5049529;28;20476;-61
2020/12/31 06:19:29;;;;;;;19.67;9.03;;;-1.00;99.90;;;;;;5049081;28;20462;-62
2020/12/31 06:22:13;;;;;;;20.53;10.27;;;-1.00;99.90;;;;;;5050095;28;20577;-61
2020/12/31 06:24:46;;;;;;;18.73;9.87;;;-1.00;99.90;;;;;;5047763;28;20432;-61
2020/12/31 06:27:13;;;;;;;16.83;9.63;;;-1.00;99.90;;;;;;5047303;28;20578;-62
2020/12/31 06:29:50;;;;;;;20.63;10.00;;;-1.00;99.90;;;;;;5051402;28;20928;-62
2020/12/31 06:32:26;;;;;;;25.10;12.57;;;-1.00;99.90;;;;;;5045093;28;20565;-61
2020/12/31 06:35:06;;;;;;;17.87;9.70;;;-1.00;99.90;;;;;;5050937;28;20462;-61
2020/12/31 06:37:33;;;;;;;18.03;9.07;;;-1.00;99.90;;;;;;5051654;28;20490;-61
2020/12/31 06:40:23;;;;;;;16.43;9.07;;;-1.00;99.90;;;;;;5043369;28;20488;-61
2020/12/31 06:43:07;;;;;;;22.87;10.97;;;-0.90;99.90;;;;;;5047974;28;20456;-61
2020/12/31 06:45:44;;;;;;;24.53;9.90;;;-0.90;99.90;;;;;;5048254;28;20454;-61
2020/12/31 06:48:25;;;;;;;18.50;9.00;;;-0.90;99.90;;;;;;5050201;28;20427;-61
2020/12/31 06:51:07;;;;;;;20.53;10.40;;;-0.90;99.90;;;;;;5049613;28;20524;-62
2020/12/31 06:53:46;;;;;;;26.23;13.80;;;-0.90;99.90;;;;;;5049969;28;20533;-62
2020/12/31 06:56:13;;;;;;;27.73;14.13;;;-0.90;99.90;;;;;;5044701;28;20434;-62
2020/12/31 06:58:43;;;;;;;31.00;13.43;;;-0.90;99.90;;;;;;5045237;28;20445;-61
2020/12/31 07:01:28;;;;;;;22.87;11.73;;;-0.90;99.90;;;;;;5043870;28;20431;-61
2020/12/31 07:03:57;;;;;;;21.43;11.30;;;-0.90;99.90;;;;;;5047920;28;20460;-61
2020/12/31 07:06:25;;;;;;;17.43;10.40;;;-0.90;99.90;;;;;;5048591;28;20446;-61
2020/12/31 07:08:59;;;;;;;20.67;10.60;;;-0.80;99.90;;;;;;5045789;28;20435;-62
2020/12/31 07:11:28;;;;;;;20.23;11.50;;;-0.80;99.90;;;;;;5046388;28;20515;-62
2020/12/31 07:13:56;;;;;;;18.97;11.20;;;-0.80;99.90;;;;;;5037805;28;20469;-63
2020/12/31 07:16:45;;;;;;;19.90;11.30;;;-0.80;99.90;;;;;;5045779;28;20430;-62
2020/12/31 07:19:11;;;;;;;20.50;11.03;;;-0.70;99.90;;;;;;5041876;28;20471;-63
2020/12/31 07:21:37;;;;;;;20.50;10.90;;;-0.70;99.90;;;;;;5033863;28;20475;-62
2020/12/31 07:24:55;;;;;;;15.80;8.83;;;-0.60;99.90;;;;;;5040894;28;20197;-62
2020/12/31 07:27:32;;;;;;;15.73;9.07;;;-0.60;99.90;;;;;;4976120;28;20440;-62
2020/12/31 07:29:59;;;;;;;16.27;8.20;;;-0.50;99.90;;;;;;5034787;28;20491;-61
2020/12/31 07:32:50;;;;;;;15.90;9.20;;;-0.40;99.90;;;;;;5033889;28;20497;-60
2020/12/31 07:35:42;;;;;;;15.90;9.10;;;-0.30;99.90;;;;;;5038386;28;20438;-61
2020/12/31 07:38:13;;;;;;;15.53;9.07;;;-0.30;99.90;;;;;;5038282;28;20435;-61
2020/12/31 07:40:44;;;;;;;15.37;8.77;;;-0.30;99.90;;;;;;5039140;28;20442;-63
2020/12/31 07:43:30;;;;;;;21.30;9.60;;;-0.20;99.90;;;;;;5041909;28;20466;-61
2020/12/31 07:46:02;;;;;;;19.50;9.97;;;-0.20;99.90;;;;;;5047265;28;20949;-60
2020/12/31 07:48:29;;;;;;;23.80;10.00;;;-0.20;99.90;;;;;;5045135;28;20532;-61
2020/12/31 07:50:56;;;;;;;26.90;12.97;;;-0.10;99.90;;;;;;5041872;28;20450;-61
2020/12/31 07:53:22;;;;;;;30.03;13.63;;;0.00;99.90;;;;;;5046241;28;20853;-62
2020/12/31 07:55:53;;;;;;;21.97;11.10;;;0.00;99.90;;;;;;5045737;28;21616;-61
2020/12/31 07:58:21;;;;;;;17.70;9.93;;;0.10;99.90;;;;;;5049113;28;20437;-63
2020/12/31 08:01:05;;;;;;;68.70;26.13;;;0.20;99.90;;;;;;5046501;28;20438;-61
2020/12/31 08:03:31;;;;;;;41.70;17.53;;;0.20;99.90;;;;;;5038687;28;20455;-62
2020/12/31 08:05:57;;;;;;;31.60;14.23;;;0.30;99.90;;;;;;5036901;28;20439;-60
2020/12/31 08:08:23;;;;;;;27.33;12.17;;;0.30;99.90;;;;;;5041935;28;20513;-61
2020/12/31 08:10:52;;;;;;;14.77;8.53;;;0.30;99.90;;;;;;5048591;28;20435;-60
2020/12/31 08:13:18;;;;;;;11.80;7.70;;;0.30;99.90;;;;;;5031765;28;20463;-60
2020/12/31 08:15:54;;;;;;;14.80;8.87;;;0.30;99.90;;;;;;5031962;28;20446;-62
2020/12/31 08:18:21;;;;;;;23.10;11.20;;;0.40;99.90;;;;;;5037873;28;20924;-63
2020/12/31 08:20:48;;;;;;;15.57;9.00;;;0.40;99.90;;;;;;5038891;28;20419;-63
2020/12/31 08:23:29;;;;;;;14.60;8.70;;;0.40;99.90;;;;;;5042031;28;20452;-61
2020/12/31 08:25:57;;;;;;;14.73;8.53;;;0.40;99.90;;;;;;5036309;28;20447;-60
2020/12/31 08:28:23;;;;;;;12.13;7.40;;;0.40;99.90;;;;;;5049077;28;20942;-61
2020/12/31 08:30:49;;;;;;;14.23;8.30;;;0.50;99.90;;;;;;5044793;28;20442;-61
2020/12/31 08:33:23;;;;;;;14.10;9.10;;;0.50;99.90;;;;;;5045162;28;20474;-61
2020/12/31 08:35:49;;;;;;;17.73;8.83;;;0.50;99.90;;;;;;5044607;28;20435;-62
2020/12/31 08:38:17;;;;;;;11.77;7.90;;;0.60;99.90;;;;;;5040249;28;20428;-62
2020/12/31 08:40:48;;;;;;;12.57;8.17;;;0.50;99.90;;;;;;5047240;28;20952;-59
2020/12/31 08:43:17;;;;;;;14.67;8.40;;;0.50;99.90;;;;;;5042789;28;21190;-61
2020/12/31 08:45:43;;;;;;;14.53;8.50;;;0.50;99.90;;;;;;5054729;28;20454;-61
2020/12/31 08:48:14;;;;;;;12.27;7.80;;;0.60;99.90;;;;;;5047249;28;20435;-60
2020/12/31 08:50:41;;;;;;;13.47;8.27;;;0.60;99.90;;;;;;5043838;28;20435;-67
2020/12/31 08:53:07;;;;;;;18.23;8.83;;;0.60;99.90;;;;;;5047573;28;20924;-63
2020/12/31 08:55:36;;;;;;;16.30;8.27;;;0.60;99.90;;;;;;5046194;28;20442;-63
2020/12/31 08:58:16;;;;;;;12.97;7.50;;;0.60;99.90;;;;;;5046127;28;20546;-62
2020/12/31 09:00:42;;;;;;;13.50;8.13;;;0.60;99.90;;;;;;5044518;28;20428;-61
2020/12/31 09:03:09;;;;;;;13.27;8.40;;;0.60;99.90;;;;;;5033449;28;21786;-64
2020/12/31 09:05:34;;;;;;;15.03;8.37;;;0.60;99.90;;;;;;5030810;28;20454;-64
2020/12/31 09:08:03;;;;;;;16.00;9.43;;;0.70;99.90;;;;;;5045530;28;20510;-65
2020/12/31 09:10:32;;;;;;;13.30;8.50;;;0.70;99.90;;;;;;5040724;28;20181;-66
2020/12/31 09:12:58;;;;;;;14.63;9.00;;;0.70;99.90;;;;;;5044829;28;20960;-61
2020/12/31 09:15:24;;;;;;;10.60;7.03;;;0.70;99.90;;;;;;5045388;28;20442;-60
2020/12/31 09:17:50;;;;;;;12.50;7.67;;;0.80;99.90;;;;;;5045099;28;20439;-63
2020/12/31 09:20:21;;;;;;;12.63;8.70;;;0.80;99.90;;;;;;5045157;28;20777;-61
2020/12/31 09:22:47;;;;;;;13.73;7.60;;;0.80;99.90;;;;;;5041790;28;20207;-61
2020/12/31 09:25:16;;;;;;;10.83;7.03;;;0.90;99.80;;;;;;5047064;28;20435;-62
2020/12/31 09:27:45;;;;;;;12.70;7.77;;;0.90;99.40;;;;;;5043725;28;20505;-59
2020/12/31 09:30:11;;;;;;;11.40;7.13;;;0.90;99.40;;;;;;5048259;28;20873;-59
2020/12/31 09:32:38;;;;;;;9.50;7.60;;;0.90;99.40;;;;;;5046593;28;20956;-60
2020/12/31 09:35:05;;;;;;;14.33;7.40;;;1.00;99.40;;;;;;5051825;28;20447;-67
2020/12/31 09:37:57;;;;;;;11.10;7.33;;;1.00;99.10;;;;;;5049039;28;20443;-59
2020/12/31 09:40:23;;;;;;;12.17;7.13;;;1.10;99.30;;;;;;5046958;28;20435;-62
2020/12/31 09:42:49;;;;;;;11.03;7.07;;;1.10;99.00;;;;;;5053706;28;20485;-61
2020/12/31 09:45:15;;;;;;;11.73;7.30;;;1.20;98.90;;;;;;5045900;28;20439;-63
2020/12/31 09:47:40;;;;;;;12.80;7.43;;;1.30;98.80;;;;;;5047477;28;20941;-62
2020/12/31 09:50:09;;;;;;;9.40;6.97;;;1.40;98.40;;;;;;5037166;28;20191;-62
2020/12/31 09:52:36;;;;;;;13.07;7.70;;;1.40;98.30;;;;;;5043869;28;20213;-62
2020/12/31 09:55:01;;;;;;;12.50;8.53;;;1.50;98.00;;;;;;5037394;28;20910;-63
2020/12/31 09:57:27;;;;;;;12.50;7.60;;;1.50;97.30;;;;;;5044176;28;20455;-61
2020/12/31 09:59:53;;;;;;;12.80;8.00;;;1.50;96.70;;;;;;5050744;28;20200;-62
2020/12/31 10:02:19;;;;;;;17.33;9.57;;;1.50;97.10;;;;;;5041125;28;20457;-61
2020/12/31 10:04:44;;;;;;;14.43;8.30;;;1.50;97.30;;;;;;5041271;28;20192;-62
2020/12/31 10:07:10;;;;;;;13.20;7.33;;;1.60;97.00;;;;;;5043249;28;20178;-65
2020/12/31 10:09:36;;;;;;;21.73;10.17;;;1.70;97.00;;;;;;5044203;28;20239;-63
2020/12/31 10:12:01;;;;;;;13.80;8.50;;;1.80;97.30;;;;;;5046164;28;20193;-61
2020/12/31 10:14:27;;;;;;;14.03;7.70;;;1.90;97.40;;;;;;5044947;28;20217;-61
2020/12/31 10:16:53;;;;;;;11.50;7.03;;;2.10;96.90;;;;;;5042419;28;20659;-62
2020/12/31 10:19:18;;;;;;;13.40;7.23;;;2.30;96.30;;;;;;5043814;28;20193;-63
2020/12/31 10:21:46;;;;;;;13.27;8.00;;;2.30;96.30;;;;;;5043373;28;20268;-66
2020/12/31 10:24:11;;;;;;;10.60;6.60;;;2.40;96.40;;;;;;5038146;28;20184;-61
2020/12/31 10:26:37;;;;;;;12.60;7.37;;;2.50;96.00;;;;;;5047792;28;20524;-63
2020/12/31 10:29:03;;;;;;;12.10;7.03;;;2.50;95.50;;;;;;5043193;28;20437;-60
2020/12/31 10:31:29;;;;;;;28.20;14.20;;;2.50;95.40;;;;;;5037394;28;20276;-60
2020/12/31 10:33:54;;;;;;;11.23;7.10;;;2.70;96.00;;;;;;5044226;28;20232;-62
2020/12/31 10:36:20;;;;;;;10.90;7.90;;;2.80;95.10;;;;;;5045032;28;20614;-61
2020/12/31 10:38:46;;;;;;;9.53;6.83;;;2.90;94.40;;;;;;5047714;28;20247;-62
2020/12/31 10:41:15;;;;;;;13.30;7.93;;;2.80;94.50;;;;;;5043802;28;20183;-61
2020/12/31 10:43:41;;;;;;;13.40;8.30;;;2.80;94.80;;;;;;5046131;28;20206;-61
2020/12/31 10:46:06;;;;;;;11.20;7.93;;;2.90;94.90;;;;;;5040111;28;20439;-62
2020/12/31 10:48:32;;;;;;;11.53;7.50;;;3.00;94.90;;;;;;5042400;28;20435;-63
2020/12/31 10:50:58;;;;;;;12.50;8.07;;;3.10;94.40;;;;;;5045988;28;20436;-59
2020/12/31 10:53:24;;;;;;;12.00;6.80;;;3.10;93.30;;;;;;5039346;28;20264;-60
2020/12/31 10:55:50;;;;;;;12.30;7.60;;;3.10;93.10;;;;;;5038752;28;20439;-68
2020/12/31 10:58:15;;;;;;;11.70;7.03;;;3.10;93.40;;;;;;5037721;28;20188;-62
2020/12/31 11:00:41;;;;;;;18.83;9.73;;;3.10;93.20;;;;;;5049286;28;20179;-63
2020/12/31 11:03:07;;;;;;;12.47;7.70;;;3.00;93.20;;;;;;5042903;28;20560;-64
2020/12/31 11:05:32;;;;;;;11.30;7.30;;;3.00;92.80;;;;;;5040660;28;20280;-63
2020/12/31 11:07:58;;;;;;;9.17;6.57;;;2.90;93.50;;;;;;5038907;28;20183;-64
2020/12/31 11:10:24;;;;;;;7.70;5.80;;;2.90;93.80;;;;;;5041222;28;20191;-63
2020/12/31 11:12:50;;;;;;;11.10;6.37;;;2.90;94.50;;;;;;5040118;28;20310;-63
2020/12/31 11:15:15;;;;;;;9.03;6.47;;;2.90;93.90;;;;;;5039256;28;20742;-64
2020/12/31 11:17:41;;;;;;;13.10;6.67;;;2.80;94.00;;;;;;5036914;28;20186;-65
2020/12/31 11:20:06;;;;;;;10.30;6.50;;;2.70;94.30;;;;;;5043462;28;20266;-62
2020/12/31 11:22:33;;;;;;;8.70;6.47;;;2.60;94.00;;;;;;5035788;28;20230;-61
2020/12/31 11:24:58;;;;;;;9.30;6.50;;;2.50;94.50;;;;;;5047010;28;20472;-62
2020/12/31 11:27:24;;;;;;;7.37;5.80;;;2.50;94.50;;;;;;5034301;28;20195;-62
2020/12/31 11:29:51;;;;;;;9.33;6.30;;;2.40;95.00;;;;;;5044107;28;20189;-62
2020/12/31 11:32:17;;;;;;;15.07;7.90;;;2.40;95.20;;;;;;5035503;28;20194;-63
2020/12/31 11:34:42;;;;;;;12.20;7.23;;;2.40;95.40;;;;;;5039287;28;20885;-61
2020/12/31 11:37:11;;;;;;;12.40;7.90;;;2.40;95.30;;;;;;5040618;28;20433;-62
2020/12/31 11:39:36;;;;;;;12.90;8.40;;;2.40;95.60;;;;;;5042989;28;20275;-64
2020/12/31 11:42:02;;;;;;;11.53;7.07;;;2.30;95.80;;;;;;5044857;28;20534;-64
2020/12/31 11:44:28;;;;;;;12.63;7.77;;;2.30;95.90;;;;;;5042846;28;20256;-62
2020/12/31 11:47:04;;;;;;;13.33;7.50;;;2.30;95.70;;;;;;5038267;28;20491;-61
2020/12/31 11:49:31;;;;;;;11.90;7.10;;;2.20;96.00;;;;;;5038912;28;20224;-61
2020/12/31 11:51:59;;;;;;;12.50;7.50;;;2.20;96.10;;;;;;5042634;28;21047;-61
2020/12/31 11:54:26;;;;;;;11.63;7.20;;;2.20;96.10;;;;;;5038112;28;20504;-63
2020/12/31 11:56:51;;;;;;;12.07;7.63;;;2.10;96.30;;;;;;5039053;28;20950;-60
2020/12/31 11:59:17;;;;;;;11.77;6.87;;;2.10;96.30;;;;;;5046575;28;20417;-61
2020/12/31 12:01:50;;;;;;;10.27;7.33;;;2.20;96.30;;;;;;5042181;28;20178;-61
2020/12/31 12:04:19;;;;;;;9.93;7.10;;;2.20;96.20;;;;;;5041200;28;20203;-61
2020/12/31 12:06:52;;;;;;;10.60;6.90;;;2.10;96.30;;;;;;5042990;28;20471;-62
2020/12/31 12:09:18;;;;;;;11.10;7.00;;;2.10;96.10;;;;;;5041039;28;20439;-62
2020/12/31 12:11:45;;;;;;;13.93;8.33;;;2.20;96.20;;;;;;5042979;28;20440;-63
2020/12/31 12:14:11;;;;;;;15.73;7.93;;;2.20;96.30;;;;;;5048191;28;20521;-60
2020/12/31 12:16:39;;;;;;;11.20;7.00;;;2.30;95.90;;;;;;5042516;28;20509;-63
2020/12/31 12:19:05;;;;;;;10.33;7.10;;;2.40;96.00;;;;;;5046031;28;21010;-62
2020/12/31 12:21:30;;;;;;;20.73;7.13;;;2.50;96.00;;;;;;5041308;28;20515;-64
2020/12/31 12:23:56;;;;;;;10.63;6.93;;;2.50;95.80;;;;;;5043731;28;20203;-63
2020/12/31 12:26:22;;;;;;;14.83;8.07;;;2.50;95.40;;;;;;5038511;28;20186;-63
2020/12/31 12:28:47;;;;;;;9.33;6.57;;;2.50;95.30;;;;;;5031508;28;20232;-62
2020/12/31 12:31:13;;;;;;;9.23;6.70;;;2.50;95.40;;;;;;5046047;28;20268;-63
2020/12/31 12:33:39;;;;;;;12.70;6.90;;;2.50;95.20;;;;;;5035333;28;20213;-63
2020/12/31 12:36:06;;;;;;;9.10;7.00;;;2.40;95.60;;;;;;5051737;28;20253;-62
2020/12/31 12:38:32;;;;;;;9.50;6.03;;;2.40;95.50;;;;;;5043003;28;20435;-62
2020/12/31 12:40:58;;;;;;;9.07;6.63;;;2.40;95.30;;;;;;5033555;28;20458;-63
2020/12/31 12:43:24;;;;;;;10.00;6.60;;;2.40;95.30;;;;;;5042659;28;20463;-63
2020/12/31 12:45:49;;;;;;;11.80;6.87;;;2.30;95.20;;;;;;5042126;28;20216;-63
2020/12/31 12:48:15;;;;;;;9.40;6.43;;;2.30;95.50;;;;;;5040068;28;20230;-65
2020/12/31 12:50:41;;;;;;;13.67;7.83;;;2.30;96.00;;;;;;5043653;28;20189;-64